sensor_id;sensor_type;location;lat;lon;timestamp;P1;durP1;ratioP1;P2;durP2;ratioP2
16820;SDS011;8527;49.740;6.604;2023-05-10T00:01:33;2.83;;;1.90;;
16820;SDS011;8527;49.740;6.604;2023-05-10T00:06:31;2.85;;;2.08;;
16820;SDS011;8527;49.740;6.604;2023-05-10T00:11:30;2.78;;;1.80;;
16820;SDS011;8527;49.740;6.604;2023-05-10T00:16:33;2.42;;;2.00;;
16820;SDS011;8527;49.740;6.604;2023-05-10T00:21:34;3.38;;;2.28;;
16820;SDS011;8527;49.740;6.604;2023-05-10T00:26:33;1.98;;;1.88;;
16820;SDS011;8527;49.740;6.604;2023-05-10T00:31:34;2.72;;;2.42;;
16820;SDS011;8527;49.740;6.604;2023-05-10T00:36:32;6.43;;;2.50;;
16820;SDS011;8527;49.740;6.604;2023-05-10T00:41:33;5.22;;;2.17;;
16820;SDS011;8527;49.740;6.604;2023-05-10T00:46:34;4.20;;;2.40;;
16820;SDS011;8527;49.740;6.604;2023-05-10T00:51:36;2.50;;;2.30;;
16820;SDS011;8527;49.740;6.604;2023-05-10T00:56:38;3.47;;;2.30;;
16820;SDS011;8527;49.740;6.604;2023-05-10T01:01:46;3.83;;;2.55;;
16820;SDS011;8527;49.740;6.604;2023-05-10T01:06:46;7.35;;;2.78;;
16820;SDS011;8527;49.740;6.604;2023-05-10T01:11:44;2.97;;;2.35;;
16820;SDS011;8527;49.740;6.604;2023-05-10T01:16:46;4.22;;;2.75;;
16820;SDS011;8527;49.740;6.604;2023-05-10T01:21:48;3.05;;;2.70;;
16820;SDS011;8527;49.740;6.604;2023-05-10T01:26:58;6.00;;;3.20;;
16820;SDS011;8527;49.740;6.604;2023-05-10T01:32:23;5.93;;;2.85;;
16820;SDS011;8527;49.740;6.604;2023-05-10T01:37:36;5.95;;;2.97;;
16820;SDS011;8527;49.740;6.604;2023-05-10T01:42:42;8.05;;;3.38;;
16820;SDS011;8527;49.740;6.604;2023-05-10T01:47:49;3.58;;;3.20;;
16820;SDS011;8527;49.740;6.604;2023-05-10T01:52:53;4.10;;;3.22;;
16820;SDS011;8527;49.740;6.604;2023-05-10T01:57:55;5.45;;;3.60;;
16820;SDS011;8527;49.740;6.604;2023-05-10T02:03:01;6.15;;;3.40;;
16820;SDS011;8527;49.740;6.604;2023-05-10T02:08:05;6.68;;;3.13;;
16820;SDS011;8527;49.740;6.604;2023-05-10T02:13:07;5.13;;;3.30;;
16820;SDS011;8527;49.740;6.604;2023-05-10T02:18:11;7.38;;;3.70;;
16820;SDS011;8527;49.740;6.604;2023-05-10T02:23:10;6.07;;;3.45;;
16820;SDS011;8527;49.740;6.604;2023-05-10T02:28:11;5.65;;;2.90;;
16820;SDS011;8527;49.740;6.604;2023-05-10T02:33:14;3.75;;;2.88;;
16820;SDS011;8527;49.740;6.604;2023-05-10T02:38:13;4.03;;;3.28;;
16820;SDS011;8527;49.740;6.604;2023-05-10T02:43:15;4.43;;;2.88;;
16820;SDS011;8527;49.740;6.604;2023-05-10T02:48:18;7.05;;;2.90;;
16820;SDS011;8527;49.740;6.604;2023-05-10T02:53:18;7.05;;;3.17;;
16820;SDS011;8527;49.740;6.604;2023-05-10T02:58:23;5.22;;;3.20;;
16820;SDS011;8527;49.740;6.604;2023-05-10T03:03:28;6.57;;;2.97;;
16820;SDS011;8527;49.740;6.604;2023-05-10T03:08:27;4.30;;;3.25;;
16820;SDS011;8527;49.740;6.604;2023-05-10T03:13:31;8.05;;;3.33;;
16820;SDS011;8527;49.740;6.604;2023-05-10T03:23:40;8.20;;;3.53;;
16820;SDS011;8527;49.740;6.604;2023-05-10T03:28:50;6.55;;;3.78;;
16820;SDS011;8527;49.740;6.604;2023-05-10T03:33:52;6.05;;;3.08;;
16820;SDS011;8527;49.740;6.604;2023-05-10T03:38:51;5.85;;;3.47;;
16820;SDS011;8527;49.740;6.604;2023-05-10T03:43:50;5.65;;;3.40;;
16820;SDS011;8527;49.740;6.604;2023-05-10T03:48:49;4.63;;;3.80;;
16820;SDS011;8527;49.740;6.604;2023-05-10T03:53:50;9.02;;;4.03;;
16820;SDS011;8527;49.740;6.604;2023-05-10T03:58:48;6.18;;;4.03;;
16820;SDS011;8527;49.740;6.604;2023-05-10T04:03:46;8.52;;;3.40;;
16820;SDS011;8527;49.740;6.604;2023-05-10T04:08:53;5.38;;;3.40;;
16820;SDS011;8527;49.740;6.604;2023-05-10T04:14:00;5.30;;;3.45;;
16820;SDS011;8527;49.740;6.604;2023-05-10T04:18:58;5.25;;;3.22;;
16820;SDS011;8527;49.740;6.604;2023-05-10T04:23:59;4.20;;;2.88;;
16820;SDS011;8527;49.740;6.604;2023-05-10T04:29:01;7.32;;;3.15;;
16820;SDS011;8527;49.740;6.604;2023-05-10T04:34:00;4.50;;;2.92;;
16820;SDS011;8527;49.740;6.604;2023-05-10T04:39:01;4.78;;;3.00;;
16820;SDS011;8527;49.740;6.604;2023-05-10T04:44:00;3.40;;;2.55;;
16820;SDS011;8527;49.740;6.604;2023-05-10T04:49:01;2.90;;;2.45;;
16820;SDS011;8527;49.740;6.604;2023-05-10T04:54:03;4.28;;;2.30;;
16820;SDS011;8527;49.740;6.604;2023-05-10T04:59:01;4.15;;;2.20;;
16820;SDS011;8527;49.740;6.604;2023-05-10T05:04:03;5.63;;;2.00;;
16820;SDS011;8527;49.740;6.604;2023-05-10T05:09:05;5.40;;;2.28;;
16820;SDS011;8527;49.740;6.604;2023-05-10T05:14:05;2.15;;;1.85;;
16820;SDS011;8527;49.740;6.604;2023-05-10T05:19:03;3.33;;;1.70;;
16820;SDS011;8527;49.740;6.604;2023-05-10T05:24:05;3.10;;;1.42;;
16820;SDS011;8527;49.740;6.604;2023-05-10T05:29:03;3.70;;;1.50;;
16820;SDS011;8527;49.740;6.604;2023-05-10T05:34:02;1.50;;;1.27;;
16820;SDS011;8527;49.740;6.604;2023-05-10T05:39:00;3.45;;;1.70;;
16820;SDS011;8527;49.740;6.604;2023-05-10T05:44:04;2.08;;;1.60;;
16820;SDS011;8527;49.740;6.604;2023-05-10T05:49:03;2.92;;;1.38;;
16820;SDS011;8527;49.740;6.604;2023-05-10T05:54:01;3.25;;;1.30;;
16820;SDS011;8527;49.740;6.604;2023-05-10T05:58:59;1.90;;;1.20;;
16820;SDS011;8527;49.740;6.604;2023-05-10T06:04:01;2.40;;;1.80;;
16820;SDS011;8527;49.740;6.604;2023-05-10T06:08:59;2.05;;;1.40;;
16820;SDS011;8527;49.740;6.604;2023-05-10T06:13:58;2.08;;;1.38;;
16820;SDS011;8527;49.740;6.604;2023-05-10T06:18:57;2.72;;;1.77;;
16820;SDS011;8527;49.740;6.604;2023-05-10T06:23:57;5.07;;;1.40;;
16820;SDS011;8527;49.740;6.604;2023-05-10T06:28:56;1.30;;;1.20;;
16820;SDS011;8527;49.740;6.604;2023-05-10T06:33:54;1.38;;;1.00;;
16820;SDS011;8527;49.740;6.604;2023-05-10T06:38:58;2.70;;;1.10;;
16820;SDS011;8527;49.740;6.604;2023-05-10T06:43:56;3.17;;;1.20;;
16820;SDS011;8527;49.740;6.604;2023-05-10T06:48:55;1.95;;;1.48;;
16820;SDS011;8527;49.740;6.604;2023-05-10T06:53:54;1.75;;;1.40;;
16820;SDS011;8527;49.740;6.604;2023-05-10T06:58:55;1.67;;;1.42;;
16820;SDS011;8527;49.740;6.604;2023-05-10T07:03:53;1.98;;;1.35;;
16820;SDS011;8527;49.740;6.604;2023-05-10T07:08:59;1.30;;;1.20;;
16820;SDS011;8527;49.740;6.604;2023-05-10T07:14:03;2.05;;;1.00;;
16820;SDS011;8527;49.740;6.604;2023-05-10T07:19:04;1.73;;;1.13;;
16820;SDS011;8527;49.740;6.604;2023-05-10T07:24:03;3.53;;;1.98;;
16820;SDS011;8527;49.740;6.604;2023-05-10T07:29:04;2.35;;;0.70;;
16820;SDS011;8527;49.740;6.604;2023-05-10T07:34:03;2.70;;;0.98;;
16820;SDS011;8527;49.740;6.604;2023-05-10T07:39:01;1.27;;;1.08;;
16820;SDS011;8527;49.740;6.604;2023-05-10T07:44:02;1.80;;;1.35;;
16820;SDS011;8527;49.740;6.604;2023-05-10T07:49:06;1.20;;;1.10;;
16820;SDS011;8527;49.740;6.604;2023-05-10T07:54:05;1.15;;;0.85;;
16820;SDS011;8527;49.740;6.604;2023-05-10T07:59:06;1.00;;;0.80;;
16820;SDS011;8527;49.740;6.604;2023-05-10T08:04:05;2.28;;;0.60;;
16820;SDS011;8527;49.740;6.604;2023-05-10T08:09:03;1.27;;;0.77;;
16820;SDS011;8527;49.740;6.604;2023-05-10T08:14:02;1.05;;;0.73;;
16820;SDS011;8527;49.740;6.604;2023-05-10T08:19:03;0.75;;;0.75;;
16820;SDS011;8527;49.740;6.604;2023-05-10T08:24:04;1.70;;;1.02;;
16820;SDS011;8527;49.740;6.604;2023-05-10T08:29:03;1.17;;;1.00;;
16820;SDS011;8527;49.740;6.604;2023-05-10T08:34:05;1.23;;;0.85;;
16820;SDS011;8527;49.740;6.604;2023-05-10T08:39:03;5.35;;;1.08;;
16820;SDS011;8527;49.740;6.604;2023-05-10T08:44:04;1.17;;;1.08;;
16820;SDS011;8527;49.740;6.604;2023-05-10T08:49:08;1.45;;;1.15;;
16820;SDS011;8527;49.740;6.604;2023-05-10T08:54:13;2.42;;;1.50;;
16820;SDS011;8527;49.740;6.604;2023-05-10T08:59:12;3.13;;;1.20;;
16820;SDS011;8527;49.740;6.604;2023-05-10T09:04:13;2.63;;;1.33;;
16820;SDS011;8527;49.740;6.604;2023-05-10T09:09:12;1.83;;;1.30;;
16820;SDS011;8527;49.740;6.604;2023-05-10T09:14:11;3.65;;;1.10;;
16820;SDS011;8527;49.740;6.604;2023-05-10T09:19:10;2.47;;;1.55;;
16820;SDS011;8527;49.740;6.604;2023-05-10T09:24:15;6.70;;;3.55;;
16820;SDS011;8527;49.740;6.604;2023-05-10T09:29:16;6.05;;;2.00;;
16820;SDS011;8527;49.740;6.604;2023-05-10T09:34:18;2.42;;;1.58;;
16820;SDS011;8527;49.740;6.604;2023-05-10T09:39:19;4.18;;;1.75;;
16820;SDS011;8527;49.740;6.604;2023-05-10T09:44:21;2.03;;;1.80;;
16820;SDS011;8527;49.740;6.604;2023-05-10T09:49:23;3.17;;;1.98;;
16820;SDS011;8527;49.740;6.604;2023-05-10T09:54:24;4.30;;;2.47;;
16820;SDS011;8527;49.740;6.604;2023-05-10T09:59:24;3.97;;;2.20;;
16820;SDS011;8527;49.740;6.604;2023-05-10T10:04:30;3.65;;;1.88;;
16820;SDS011;8527;49.740;6.604;2023-05-10T10:09:28;5.82;;;2.42;;
16820;SDS011;8527;49.740;6.604;2023-05-10T10:14:30;4.13;;;2.15;;
16820;SDS011;8527;49.740;6.604;2023-05-10T10:19:31;7.75;;;2.70;;
16820;SDS011;8527;49.740;6.604;2023-05-10T10:24:31;4.05;;;2.33;;
16820;SDS011;8527;49.740;6.604;2023-05-10T10:29:31;3.30;;;2.10;;
16820;SDS011;8527;49.740;6.604;2023-05-10T10:34:40;8.23;;;2.53;;
16820;SDS011;8527;49.740;6.604;2023-05-10T10:39:41;6.00;;;2.03;;
16820;SDS011;8527;49.740;6.604;2023-05-10T10:44:39;5.32;;;2.20;;
16820;SDS011;8527;49.740;6.604;2023-05-10T10:49:50;8.85;;;2.40;;
16820;SDS011;8527;49.740;6.604;2023-05-10T10:54:51;9.00;;;2.60;;
16820;SDS011;8527;49.740;6.604;2023-05-10T10:59:51;16.52;;;2.72;;
16820;SDS011;8527;49.740;6.604;2023-05-10T11:04:54;5.40;;;2.30;;
16820;SDS011;8527;49.740;6.604;2023-05-10T11:09:52;5.32;;;2.00;;
16820;SDS011;8527;49.740;6.604;2023-05-10T11:14:52;2.88;;;1.85;;
16820;SDS011;8527;49.740;6.604;2023-05-10T11:20:09;5.32;;;2.22;;
16820;SDS011;8527;49.740;6.604;2023-05-10T11:25:18;7.30;;;2.05;;
16820;SDS011;8527;49.740;6.604;2023-05-10T11:30:16;5.43;;;1.95;;
16820;SDS011;8527;49.740;6.604;2023-05-10T11:35:21;6.50;;;1.63;;
16820;SDS011;8527;49.740;6.604;2023-05-10T11:40:21;3.50;;;1.73;;
16820;SDS011;8527;49.740;6.604;2023-05-10T11:45:19;5.18;;;1.50;;
16820;SDS011;8527;49.740;6.604;2023-05-10T11:50:20;2.85;;;1.45;;
16820;SDS011;8527;49.740;6.604;2023-05-10T11:55:22;4.57;;;1.70;;
16820;SDS011;8527;49.740;6.604;2023-05-10T12:00:21;3.58;;;1.48;;
16820;SDS011;8527;49.740;6.604;2023-05-10T12:05:22;4.38;;;1.50;;
16820;SDS011;8527;49.740;6.604;2023-05-10T12:10:25;6.38;;;1.70;;
16820;SDS011;8527;49.740;6.604;2023-05-10T12:15:26;6.38;;;1.55;;
16820;SDS011;8527;49.740;6.604;2023-05-10T12:20:30;7.65;;;1.60;;
16820;SDS011;8527;49.740;6.604;2023-05-10T12:25:35;4.13;;;1.48;;
16820;SDS011;8527;49.740;6.604;2023-05-10T12:30:36;6.30;;;1.60;;
16820;SDS011;8527;49.740;6.604;2023-05-10T12:35:46;5.20;;;1.50;;
16820;SDS011;8527;49.740;6.604;2023-05-10T12:40:46;5.15;;;1.20;;
16820;SDS011;8527;49.740;6.604;2023-05-10T12:45:45;6.43;;;1.30;;
16820;SDS011;8527;49.740;6.604;2023-05-10T12:50:46;4.13;;;1.40;;
16820;SDS011;8527;49.740;6.604;2023-05-10T12:55:50;2.97;;;1.20;;
16820;SDS011;8527;49.740;6.604;2023-05-10T13:00:49;1.88;;;0.98;;
16820;SDS011;8527;49.740;6.604;2023-05-10T13:05:51;5.35;;;1.20;;
16820;SDS011;8527;49.740;6.604;2023-05-10T13:10:49;3.25;;;1.10;;
16820;SDS011;8527;49.740;6.604;2023-05-10T13:15:48;2.72;;;1.30;;
16820;SDS011;8527;49.740;6.604;2023-05-10T13:20:46;2.58;;;1.00;;
16820;SDS011;8527;49.740;6.604;2023-05-10T13:25:50;4.18;;;1.00;;
16820;SDS011;8527;49.740;6.604;2023-05-10T13:30:48;3.28;;;1.00;;
16820;SDS011;8527;49.740;6.604;2023-05-10T13:35:46;3.15;;;1.05;;
16820;SDS011;8527;49.740;6.604;2023-05-10T13:40:44;2.58;;;1.17;;
16820;SDS011;8527;49.740;6.604;2023-05-10T13:45:45;5.20;;;1.08;;
16820;SDS011;8527;49.740;6.604;2023-05-10T13:50:47;2.35;;;1.10;;
16820;SDS011;8527;49.740;6.604;2023-05-10T13:55:45;3.03;;;1.63;;
16820;SDS011;8527;49.740;6.604;2023-05-10T14:00:46;9.10;;;1.60;;
16820;SDS011;8527;49.740;6.604;2023-05-10T14:05:45;2.38;;;1.02;;
16820;SDS011;8527;49.740;6.604;2023-05-10T14:10:46;3.63;;;1.25;;
16820;SDS011;8527;49.740;6.604;2023-05-10T14:15:52;1.63;;;1.08;;
16820;SDS011;8527;49.740;6.604;2023-05-10T14:20:51;4.25;;;1.10;;
16820;SDS011;8527;49.740;6.604;2023-05-10T14:25:50;2.35;;;0.93;;
16820;SDS011;8527;49.740;6.604;2023-05-10T14:30:51;0.77;;;0.77;;
16820;SDS011;8527;49.740;6.604;2023-05-10T14:35:49;2.75;;;1.10;;
16820;SDS011;8527;49.740;6.604;2023-05-10T14:40:54;2.50;;;1.00;;
16820;SDS011;8527;49.740;6.604;2023-05-10T14:45:55;5.47;;;0.90;;
16820;SDS011;8527;49.740;6.604;2023-05-10T14:50:54;1.13;;;0.82;;
16820;SDS011;8527;49.740;6.604;2023-05-10T14:55:52;5.93;;;1.08;;
16820;SDS011;8527;49.740;6.604;2023-05-10T15:00:51;3.00;;;0.70;;
16820;SDS011;8527;49.740;6.604;2023-05-10T15:05:52;3.65;;;0.80;;
16820;SDS011;8527;49.740;6.604;2023-05-10T15:10:53;2.10;;;0.70;;
16820;SDS011;8527;49.740;6.604;2023-05-10T15:15:53;1.52;;;0.88;;
16820;SDS011;8527;49.740;6.604;2023-05-10T15:20:53;2.47;;;0.88;;
16820;SDS011;8527;49.740;6.604;2023-05-10T15:25:53;2.17;;;1.27;;
16820;SDS011;8527;49.740;6.604;2023-05-10T15:30:57;1.98;;;0.90;;
16820;SDS011;8527;49.740;6.604;2023-05-10T15:35:59;1.63;;;0.70;;
16820;SDS011;8527;49.740;6.604;2023-05-10T15:40:59;2.13;;;0.85;;
16820;SDS011;8527;49.740;6.604;2023-05-10T15:45:57;1.75;;;1.33;;
16820;SDS011;8527;49.740;6.604;2023-05-10T15:51:01;1.20;;;0.98;;
16820;SDS011;8527;49.740;6.604;2023-05-10T15:56:02;2.72;;;0.80;;
16820;SDS011;8527;49.740;6.604;2023-05-10T16:01:03;0.95;;;0.82;;
16820;SDS011;8527;49.740;6.604;2023-05-10T16:06:05;3.40;;;0.80;;
16820;SDS011;8527;49.740;6.604;2023-05-10T16:11:03;2.45;;;1.13;;
16820;SDS011;8527;49.740;6.604;2023-05-10T16:16:04;1.75;;;0.95;;
16820;SDS011;8527;49.740;6.604;2023-05-10T16:21:06;2.15;;;0.90;;
16820;SDS011;8527;49.740;6.604;2023-05-10T16:26:05;3.13;;;0.80;;
16820;SDS011;8527;49.740;6.604;2023-05-10T16:31:03;2.88;;;0.80;;
16820;SDS011;8527;49.740;6.604;2023-05-10T16:36:02;5.03;;;0.80;;
16820;SDS011;8527;49.740;6.604;2023-05-10T16:41:05;3.08;;;0.73;;
16820;SDS011;8527;49.740;6.604;2023-05-10T16:46:08;5.68;;;0.90;;
16820;SDS011;8527;49.740;6.604;2023-05-10T16:51:12;2.88;;;0.98;;
16820;SDS011;8527;49.740;6.604;2023-05-10T16:56:10;2.47;;;0.98;;
16820;SDS011;8527;49.740;6.604;2023-05-10T17:01:11;1.58;;;0.80;;
16820;SDS011;8527;49.740;6.604;2023-05-10T17:06:13;3.85;;;1.00;;
16820;SDS011;8527;49.740;6.604;2023-05-10T17:11:11;4.05;;;1.15;;
16820;SDS011;8527;49.740;6.604;2023-05-10T17:16:14;2.55;;;0.90;;
16820;SDS011;8527;49.740;6.604;2023-05-10T17:21:15;1.65;;;0.60;;
16820;SDS011;8527;49.740;6.604;2023-05-10T17:26:13;3.42;;;0.55;;
16820;SDS011;8527;49.740;6.604;2023-05-10T17:31:16;2.83;;;0.88;;
16820;SDS011;8527;49.740;6.604;2023-05-10T17:36:17;0.52;;;0.47;;
16820;SDS011;8527;49.740;6.604;2023-05-10T17:41:16;0.60;;;0.50;;
16820;SDS011;8527;49.740;6.604;2023-05-10T17:46:15;1.35;;;0.63;;
16820;SDS011;8527;49.740;6.604;2023-05-10T17:51:17;1.13;;;0.60;;
16820;SDS011;8527;49.740;6.604;2023-05-10T17:56:15;2.58;;;0.60;;
16820;SDS011;8527;49.740;6.604;2023-05-10T18:01:14;2.90;;;0.60;;
16820;SDS011;8527;49.740;6.604;2023-05-10T18:06:18;3.15;;;0.60;;
16820;SDS011;8527;49.740;6.604;2023-05-10T18:11:19;0.85;;;0.57;;
16820;SDS011;8527;49.740;6.604;2023-05-10T18:16:17;1.88;;;0.80;;
16820;SDS011;8527;49.740;6.604;2023-05-10T18:21:18;1.55;;;0.95;;
16820;SDS011;8527;49.740;6.604;2023-05-10T18:26:17;11.52;;;2.05;;
16820;SDS011;8527;49.740;6.604;2023-05-10T18:31:15;2.00;;;0.73;;
16820;SDS011;8527;49.740;6.604;2023-05-10T18:36:14;2.70;;;0.85;;
16820;SDS011;8527;49.740;6.604;2023-05-10T18:41:18;4.20;;;1.38;;
16820;SDS011;8527;49.740;6.604;2023-05-10T18:46:17;2.20;;;0.68;;
16820;SDS011;8527;49.740;6.604;2023-05-10T18:51:18;1.15;;;0.73;;
16820;SDS011;8527;49.740;6.604;2023-05-10T18:56:19;1.92;;;0.57;;
16820;SDS011;8527;49.740;6.604;2023-05-10T19:01:18;2.20;;;0.85;;
16820;SDS011;8527;49.740;6.604;2023-05-10T19:06:16;3.03;;;1.00;;
16820;SDS011;8527;49.740;6.604;2023-05-10T19:11:15;2.05;;;0.77;;
16820;SDS011;8527;49.740;6.604;2023-05-10T19:16:16;3.22;;;0.70;;
16820;SDS011;8527;49.740;6.604;2023-05-10T19:21:15;1.83;;;1.00;;
16820;SDS011;8527;49.740;6.604;2023-05-10T19:26:16;3.65;;;1.48;;
16820;SDS011;8527;49.740;6.604;2023-05-10T19:31:17;2.03;;;1.10;;
16820;SDS011;8527;49.740;6.604;2023-05-10T19:36:17;2.35;;;1.40;;
16820;SDS011;8527;49.740;6.604;2023-05-10T19:41:15;7.28;;;2.42;;
16820;SDS011;8527;49.740;6.604;2023-05-10T19:46:13;2.85;;;0.98;;
16820;SDS011;8527;49.740;6.604;2023-05-10T19:51:15;2.60;;;0.80;;
16820;SDS011;8527;49.740;6.604;2023-05-10T19:56:13;2.08;;;1.48;;
16820;SDS011;8527;49.740;6.604;2023-05-10T20:01:15;2.63;;;1.38;;
16820;SDS011;8527;49.740;6.604;2023-05-10T20:06:16;5.13;;;1.58;;
16820;SDS011;8527;49.740;6.604;2023-05-10T20:11:15;2.55;;;1.33;;
16820;SDS011;8527;49.740;6.604;2023-05-10T20:16:23;3.72;;;1.50;;
16820;SDS011;8527;49.740;6.604;2023-05-10T20:21:24;2.05;;;1.65;;
16820;SDS011;8527;49.740;6.604;2023-05-10T20:26:27;5.72;;;1.42;;
16820;SDS011;8527;49.740;6.604;2023-05-10T20:31:26;1.77;;;1.20;;
16820;SDS011;8527;49.740;6.604;2023-05-10T20:36:27;5.95;;;1.30;;
16820;SDS011;8527;49.740;6.604;2023-05-10T20:41:25;2.70;;;1.08;;
16820;SDS011;8527;49.740;6.604;2023-05-10T20:46:27;3.45;;;1.02;;
16820;SDS011;8527;49.740;6.604;2023-05-10T20:51:28;3.42;;;2.10;;
16820;SDS011;8527;49.740;6.604;2023-05-10T20:56:27;6.05;;;2.30;;
16820;SDS011;8527;49.740;6.604;2023-05-10T21:01:25;5.20;;;1.70;;
16820;SDS011;8527;49.740;6.604;2023-05-10T21:06:32;6.25;;;1.48;;
16820;SDS011;8527;49.740;6.604;2023-05-10T21:11:31;2.75;;;1.80;;
16820;SDS011;8527;49.740;6.604;2023-05-10T21:16:32;2.88;;;1.50;;
16820;SDS011;8527;49.740;6.604;2023-05-10T21:21:33;3.60;;;1.40;;
16820;SDS011;8527;49.740;6.604;2023-05-10T21:26:34;4.65;;;2.00;;
16820;SDS011;8527;49.740;6.604;2023-05-10T21:31:33;2.35;;;1.30;;
16820;SDS011;8527;49.740;6.604;2023-05-10T21:36:34;1.27;;;1.17;;
16820;SDS011;8527;49.740;6.604;2023-05-10T21:41:32;3.28;;;1.83;;
16820;SDS011;8527;49.740;6.604;2023-05-10T21:46:36;1.63;;;1.02;;
16820;SDS011;8527;49.740;6.604;2023-05-10T21:51:37;3.38;;;1.33;;
16820;SDS011;8527;49.740;6.604;2023-05-10T21:56:35;1.92;;;1.20;;
16820;SDS011;8527;49.740;6.604;2023-05-10T22:01:33;2.25;;;1.33;;
16820;SDS011;8527;49.740;6.604;2023-05-10T22:06:32;1.58;;;1.08;;
16820;SDS011;8527;49.740;6.604;2023-05-10T22:11:33;2.10;;;1.30;;
16820;SDS011;8527;49.740;6.604;2023-05-10T22:16:31;1.55;;;1.20;;
16820;SDS011;8527;49.740;6.604;2023-05-10T22:21:29;1.70;;;1.05;;
16820;SDS011;8527;49.740;6.604;2023-05-10T22:26:28;1.83;;;1.27;;
16820;SDS011;8527;49.740;6.604;2023-05-10T22:31:29;1.70;;;1.17;;
16820;SDS011;8527;49.740;6.604;2023-05-10T22:36:28;4.05;;;1.20;;
16820;SDS011;8527;49.740;6.604;2023-05-10T22:41:32;7.35;;;1.58;;
16820;SDS011;8527;49.740;6.604;2023-05-10T22:46:33;1.35;;;1.20;;
16820;SDS011;8527;49.740;6.604;2023-05-10T22:51:34;3.80;;;1.42;;
16820;SDS011;8527;49.740;6.604;2023-05-10T22:56:35;2.90;;;1.42;;
16820;SDS011;8527;49.740;6.604;2023-05-10T23:01:36;4.22;;;1.48;;
16820;SDS011;8527;49.740;6.604;2023-05-10T23:06:34;4.03;;;1.20;;
16820;SDS011;8527;49.740;6.604;2023-05-10T23:11:33;7.20;;;1.77;;
16820;SDS011;8527;49.740;6.604;2023-05-10T23:16:40;2.97;;;1.30;;
16820;SDS011;8527;49.740;6.604;2023-05-10T23:21:41;2.57;;;1.37;;
16820;SDS011;8527;49.740;6.604;2023-05-10T23:26:39;1.73;;;1.20;;
16820;SDS011;8527;49.740;6.604;2023-05-10T23:31:44;2.35;;;1.50;;
16820;SDS011;8527;49.740;6.604;2023-05-10T23:36:45;2.63;;;1.30;;
16820;SDS011;8527;49.740;6.604;2023-05-10T23:41:45;4.53;;;1.60;;
16820;SDS011;8527;49.740;6.604;2023-05-10T23:46:49;2.05;;;1.60;;
16820;SDS011;8527;49.740;6.604;2023-05-10T23:51:47;4.63;;;1.30;;
16820;SDS011;8527;49.740;6.604;2023-05-10T23:56:46;2.03;;;1.50;;
